Track Слепенков Матвей

Time Latitude Longitude Accuracy (66% radius in meters) Altitude (meters) Speed (km/hour) Bearing (degrees) Battery (%) GPS flag
11:18:15 57.204362 60.121012 0 0 0 0 1 delete
11:18:06 57.204415 60.121132 0 0 0 0 1 delete
11:17:56 57.204483 60.120990 0 0 0 0 1 delete
11:17:38 57.204588 60.120984 0 0 0 0 1 delete
11:17:21 57.204678 60.121075 0 0 0 0 1 delete
11:17:00 57.204614 60.120891 0 0 0 0 1 delete
11:16:46 57.204598 60.120791 0 0 0 0 1 delete
11:16:37 57.204555 60.120663 0 0 0 0 1 delete
11:16:33 57.204500 60.120510 0 0 0 0 1 delete
11:16:29 57.204489 60.120280 0 0 0 0 1 delete
11:16:26 57.204497 60.120118 0 0 0 0 1 delete
11:16:23 57.204488 60.119954 0 0 0 0 1 delete
11:16:20 57.204448 60.119772 0 0 0 0 1 delete
11:16:17 57.204392 60.119630 0 0 0 0 1 delete
11:16:14 57.204345 60.119489 0 0 0 0 1 delete
11:16:11 57.204301 60.119387 0 0 0 0 1 delete
11:16:08 57.204247 60.119266 0 0 0 0 1 delete
11:16:04 57.204175 60.119126 0 0 0 0 1 delete
11:16:01 57.204114 60.119050 0 0 0 0 1 delete
11:15:58 57.204049 60.118984 0 0 0 0 1 delete
11:15:55 57.203984 60.118911 0 0 0 0 1 delete
11:15:52 57.203930 60.118830 0 0 0 0 1 delete
11:15:48 57.203865 60.118724 0 0 0 0 1 delete
11:15:42 57.203865 60.118579 0 0 0 0 1 delete
11:15:38 57.203894 60.118454 0 0 0 0 1 delete
11:15:34 57.203932 60.118335 0 0 0 0 1 delete
11:15:27 57.203992 60.118167 0 0 0 0 1 delete
11:15:23 57.204097 60.118039 0 0 0 0 1 delete
11:15:20 57.204178 60.117930 0 0 0 0 1 delete
11:15:17 57.204258 60.117822 0 0 0 0 1 delete
11:15:13 57.204352 60.117670 0 0 0 0 1 delete
11:15:10 57.204408 60.117559 0 0 0 0 1 delete
11:15:07 57.204504 60.117498 0 0 0 0 1 delete
11:15:04 57.204634 60.117469 0 0 0 0 1 delete
11:15:01 57.204771 60.117501 0 0 0 0 1 delete
11:14:58 57.204886 60.117558 0 0 0 0 1 delete
11:14:55 57.204994 60.117566 0 0 0 0 1 delete
11:14:53 57.205076 60.117563 0 0 0 0 1 delete
11:14:49 57.205176 60.117503 0 0 0 0 1 delete
11:14:44 57.205214 60.117359 0 0 0 0 1 delete
11:14:40 57.205291 60.117301 0 0 0 0 1 delete
11:14:37 57.205382 60.117227 0 0 0 0 1 delete
11:14:34 57.205460 60.117165 0 0 0 0 1 delete
11:14:31 57.205537 60.117122 0 0 0 0 1 delete
11:14:29 57.205609 60.117080 0 0 0 0 1 delete
11:14:27 57.205713 60.117057 0 0 0 0 1 delete
11:14:25 57.205847 60.117041 0 0 0 0 1 delete
11:14:23 57.205964 60.117064 0 0 0 0 1 delete
11:14:21 57.206075 60.117098 0 0 0 0 1 delete
11:14:19 57.206165 60.117113 0 0 0 0 1 delete